sensor_id;sensor_type;location;lat;lon;timestamp;temperature;humidity
61117;DHT22;47002;50.856;6.580;2022-08-11T00:01:54;17.40;53.60
61117;DHT22;47002;50.856;6.580;2022-08-11T00:04:22;17.40;53.70
61117;DHT22;47002;50.856;6.580;2022-08-11T00:06:50;17.40;54.00
61117;DHT22;47002;50.856;6.580;2022-08-11T00:09:20;17.40;53.80
61117;DHT22;47002;50.856;6.580;2022-08-11T00:11:48;17.40;54.00
61117;DHT22;47002;50.856;6.580;2022-08-11T00:14:18;17.40;54.30
61117;DHT22;47002;50.856;6.580;2022-08-11T00:16:53;17.40;53.80
61117;DHT22;47002;50.856;6.580;2022-08-11T00:19:21;17.40;54.00
61117;DHT22;47002;50.856;6.580;2022-08-11T00:21:47;17.30;53.70
61117;DHT22;47002;50.856;6.580;2022-08-11T00:24:14;17.10;53.90
61117;DHT22;47002;50.856;6.580;2022-08-11T00:26:47;17.10;54.30
61117;DHT22;47002;50.856;6.580;2022-08-11T00:29:13;16.90;54.50
61117;DHT22;47002;50.856;6.580;2022-08-11T00:31:44;16.80;54.80
61117;DHT22;47002;50.856;6.580;2022-08-11T00:34:12;16.80;55.20
61117;DHT22;47002;50.856;6.580;2022-08-11T00:36:46;16.70;55.90
61117;DHT22;47002;50.856;6.580;2022-08-11T00:39:13;16.70;56.50
61117;DHT22;47002;50.856;6.580;2022-08-11T00:41:47;16.60;55.70
61117;DHT22;47002;50.856;6.580;2022-08-11T00:44:27;16.50;56.00
61117;DHT22;47002;50.856;6.580;2022-08-11T00:47:04;16.20;56.80
61117;DHT22;47002;50.856;6.580;2022-08-11T00:49:42;16.10;57.50
61117;DHT22;47002;50.856;6.580;2022-08-11T00:52:18;15.90;58.60
61117;DHT22;47002;50.856;6.580;2022-08-11T00:55:06;15.80;58.90
61117;DHT22;47002;50.856;6.580;2022-08-11T00:58:16;15.70;59.10
61117;DHT22;47002;50.856;6.580;2022-08-11T01:01:09;15.70;59.30
61117;DHT22;47002;50.856;6.580;2022-08-11T01:04:14;15.60;59.80
61117;DHT22;47002;50.856;6.580;2022-08-11T01:10:02;15.60;59.60
61117;DHT22;47002;50.856;6.580;2022-08-11T01:12:42;15.70;59.70
61117;DHT22;47002;50.856;6.580;2022-08-11T01:15:39;15.60;60.10
61117;DHT22;47002;50.856;6.580;2022-08-11T01:21:45;15.60;60.00
61117;DHT22;47002;50.856;6.580;2022-08-11T01:28:19;15.60;61.60
61117;DHT22;47002;50.856;6.580;2022-08-11T01:31:19;15.70;60.10
61117;DHT22;47002;50.856;6.580;2022-08-11T01:37:46;15.70;59.30
61117;DHT22;47002;50.856;6.580;2022-08-11T01:40:51;15.60;59.60
61117;DHT22;47002;50.856;6.580;2022-08-11T01:44:01;15.60;59.70
61117;DHT22;47002;50.856;6.580;2022-08-11T01:46:31;15.50;60.10
61117;DHT22;47002;50.856;6.580;2022-08-11T01:49:08;15.50;60.10
61117;DHT22;47002;50.856;6.580;2022-08-11T01:51:47;15.40;60.10
61117;DHT22;47002;50.856;6.580;2022-08-11T01:54:20;15.40;60.10
61117;DHT22;47002;50.856;6.580;2022-08-11T01:57:03;15.30;60.30
61117;DHT22;47002;50.856;6.580;2022-08-11T01:59:36;15.20;60.30
61117;DHT22;47002;50.856;6.580;2022-08-11T02:02:21;15.20;60.50
61117;DHT22;47002;50.856;6.580;2022-08-11T02:04:54;15.10;60.70
61117;DHT22;47002;50.856;6.580;2022-08-11T02:07:27;15.10;60.80
61117;DHT22;47002;50.856;6.580;2022-08-11T02:10:10;15.10;60.80
61117;DHT22;47002;50.856;6.580;2022-08-11T02:12:40;15.00;60.90
61117;DHT22;47002;50.856;6.580;2022-08-11T02:15:13;14.90;61.20
61117;DHT22;47002;50.856;6.580;2022-08-11T02:17:48;14.90;61.30
61117;DHT22;47002;50.856;6.580;2022-08-11T02:20:19;14.70;61.40
61117;DHT22;47002;50.856;6.580;2022-08-11T02:22:53;14.60;61.60
61117;DHT22;47002;50.856;6.580;2022-08-11T02:25:27;14.40;62.20
61117;DHT22;47002;50.856;6.580;2022-08-11T02:28:02;14.20;64.00
61117;DHT22;47002;50.856;6.580;2022-08-11T02:30:31;14.10;64.80
61117;DHT22;47002;50.856;6.580;2022-08-11T02:33:15;14.10;64.50
61117;DHT22;47002;50.856;6.580;2022-08-11T02:35:49;14.10;64.60
61117;DHT22;47002;50.856;6.580;2022-08-11T02:38:24;14.00;65.10
61117;DHT22;47002;50.856;6.580;2022-08-11T02:41:02;13.90;65.50
61117;DHT22;47002;50.856;6.580;2022-08-11T02:43:40;13.80;65.60
61117;DHT22;47002;50.856;6.580;2022-08-11T02:46:22;13.80;66.80
61117;DHT22;47002;50.856;6.580;2022-08-11T02:49:04;13.70;66.00
61117;DHT22;47002;50.856;6.580;2022-08-11T02:51:39;13.70;66.40
61117;DHT22;47002;50.856;6.580;2022-08-11T02:54:09;13.60;66.70
61117;DHT22;47002;50.856;6.580;2022-08-11T02:56:42;13.60;67.20
61117;DHT22;47002;50.856;6.580;2022-08-11T02:59:27;13.50;67.40
61117;DHT22;47002;50.856;6.580;2022-08-11T03:01:59;13.50;67.40
61117;DHT22;47002;50.856;6.580;2022-08-11T03:04:36;13.50;67.70
61117;DHT22;47002;50.856;6.580;2022-08-11T03:07:11;13.50;67.50
61117;DHT22;47002;50.856;6.580;2022-08-11T03:09:45;13.50;67.70
61117;DHT22;47002;50.856;6.580;2022-08-11T03:12:17;13.50;67.90
61117;DHT22;47002;50.856;6.580;2022-08-11T03:14:48;13.50;67.90
61117;DHT22;47002;50.856;6.580;2022-08-11T03:17:24;13.50;67.60
61117;DHT22;47002;50.856;6.580;2022-08-11T03:20:02;13.50;67.40
61117;DHT22;47002;50.856;6.580;2022-08-11T03:22:35;13.40;67.40
61117;DHT22;47002;50.856;6.580;2022-08-11T03:25:07;13.40;67.40
61117;DHT22;47002;50.856;6.580;2022-08-11T03:27:45;13.20;67.50
61117;DHT22;47002;50.856;6.580;2022-08-11T03:30:15;13.10;67.80
61117;DHT22;47002;50.856;6.580;2022-08-11T03:32:51;12.90;68.30
61117;DHT22;47002;50.856;6.580;2022-08-11T03:35:21;12.80;68.80
61117;DHT22;47002;50.856;6.580;2022-08-11T03:37:51;12.70;69.30
61117;DHT22;47002;50.856;6.580;2022-08-11T03:40:36;12.70;69.80
61117;DHT22;47002;50.856;6.580;2022-08-11T03:43:15;12.60;70.30
61117;DHT22;47002;50.856;6.580;2022-08-11T03:45:54;12.60;70.40
61117;DHT22;47002;50.856;6.580;2022-08-11T03:48:26;12.60;70.70
61117;DHT22;47002;50.856;6.580;2022-08-11T03:51:02;12.60;70.80
61117;DHT22;47002;50.856;6.580;2022-08-11T03:53:52;12.60;71.20
61117;DHT22;47002;50.856;6.580;2022-08-11T04:15:35;12.80;71.50
61117;DHT22;47002;50.856;6.580;2022-08-11T04:21:40;12.80;71.00
61117;DHT22;47002;50.856;6.580;2022-08-11T04:24:30;12.70;71.00
61117;DHT22;47002;50.856;6.580;2022-08-11T04:27:19;12.60;71.20
61117;DHT22;47002;50.856;6.580;2022-08-11T04:30:04;12.50;71.50
61117;DHT22;47002;50.856;6.580;2022-08-11T04:35:38;12.50;71.70
61117;DHT22;47002;50.856;6.580;2022-08-11T04:38:32;12.40;71.80
61117;DHT22;47002;50.856;6.580;2022-08-11T04:41:32;12.40;72.30
61117;DHT22;47002;50.856;6.580;2022-08-11T04:47:29;12.40;72.70
61117;DHT22;47002;50.856;6.580;2022-08-11T04:50:14;12.40;72.80
61117;DHT22;47002;50.856;6.580;2022-08-11T04:56:10;12.60;73.70
61117;DHT22;47002;50.856;6.580;2022-08-11T04:58:48;12.80;73.10
61117;DHT22;47002;50.856;6.580;2022-08-11T05:01:25;12.90;72.50
61117;DHT22;47002;50.856;6.580;2022-08-11T05:07:09;13.10;71.80
61117;DHT22;47002;50.856;6.580;2022-08-11T05:10:11;13.30;71.60
61117;DHT22;47002;50.856;6.580;2022-08-11T05:12:46;13.40;71.20
61117;DHT22;47002;50.856;6.580;2022-08-11T05:15:18;13.40;71.00
61117;DHT22;47002;50.856;6.580;2022-08-11T05:17:55;13.50;70.90
61117;DHT22;47002;50.856;6.580;2022-08-11T05:20:24;13.60;70.90
61117;DHT22;47002;50.856;6.580;2022-08-11T05:22:51;13.60;70.70
61117;DHT22;47002;50.856;6.580;2022-08-11T05:25:19;13.70;70.80
61117;DHT22;47002;50.856;6.580;2022-08-11T05:27:55;13.90;70.60
61117;DHT22;47002;50.856;6.580;2022-08-11T05:30:27;14.00;70.30
61117;DHT22;47002;50.856;6.580;2022-08-11T05:32:57;14.00;70.10
61117;DHT22;47002;50.856;6.580;2022-08-11T05:35:27;14.10;70.20
61117;DHT22;47002;50.856;6.580;2022-08-11T05:37:56;14.10;70.10
61117;DHT22;47002;50.856;6.580;2022-08-11T05:40:23;14.20;70.00
61117;DHT22;47002;50.856;6.580;2022-08-11T05:42:55;14.30;70.00
61117;DHT22;47002;50.856;6.580;2022-08-11T05:45:22;14.40;70.00
61117;DHT22;47002;50.856;6.580;2022-08-11T05:47:49;14.60;69.90
61117;DHT22;47002;50.856;6.580;2022-08-11T05:50:16;14.70;69.30
61117;DHT22;47002;50.856;6.580;2022-08-11T05:52:45;14.80;69.30
61117;DHT22;47002;50.856;6.580;2022-08-11T05:55:12;15.00;68.90
61117;DHT22;47002;50.856;6.580;2022-08-11T05:57:39;15.10;69.10
61117;DHT22;47002;50.856;6.580;2022-08-11T06:00:07;15.20;68.90
61117;DHT22;47002;50.856;6.580;2022-08-11T06:02:39;15.40;67.60
61117;DHT22;47002;50.856;6.580;2022-08-11T06:05:06;15.60;67.40
61117;DHT22;47002;50.856;6.580;2022-08-11T06:07:32;15.70;66.90
61117;DHT22;47002;50.856;6.580;2022-08-11T06:09:59;15.80;66.80
61117;DHT22;47002;50.856;6.580;2022-08-11T06:12:27;16.00;66.50
61117;DHT22;47002;50.856;6.580;2022-08-11T06:14:55;16.10;66.90
61117;DHT22;47002;50.856;6.580;2022-08-11T06:17:24;16.30;66.40
61117;DHT22;47002;50.856;6.580;2022-08-11T06:19:51;16.40;65.90
61117;DHT22;47002;50.856;6.580;2022-08-11T06:22:24;16.60;65.30
61117;DHT22;47002;50.856;6.580;2022-08-11T06:24:53;16.70;64.90
61117;DHT22;47002;50.856;6.580;2022-08-11T06:27:21;16.90;64.20
61117;DHT22;47002;50.856;6.580;2022-08-11T06:29:49;17.00;63.90
61117;DHT22;47002;50.856;6.580;2022-08-11T06:32:17;17.10;63.40
61117;DHT22;47002;50.856;6.580;2022-08-11T06:34:57;17.30;62.90
61117;DHT22;47002;50.856;6.580;2022-08-11T06:37:35;17.50;62.10
61117;DHT22;47002;50.856;6.580;2022-08-11T06:40:07;17.60;61.00
61117;DHT22;47002;50.856;6.580;2022-08-11T06:42:43;17.90;59.90
61117;DHT22;47002;50.856;6.580;2022-08-11T06:45:22;18.10;59.10
61117;DHT22;47002;50.856;6.580;2022-08-11T06:47:49;18.30;57.50
61117;DHT22;47002;50.856;6.580;2022-08-11T06:50:18;18.50;57.30
61117;DHT22;47002;50.856;6.580;2022-08-11T06:52:44;18.60;56.60
61117;DHT22;47002;50.856;6.580;2022-08-11T06:55:13;18.80;55.80
61117;DHT22;47002;50.856;6.580;2022-08-11T06:57:40;19.00;55.50
61117;DHT22;47002;50.856;6.580;2022-08-11T07:00:10;19.10;54.40
61117;DHT22;47002;50.856;6.580;2022-08-11T07:02:43;19.30;54.20
61117;DHT22;47002;50.856;6.580;2022-08-11T07:05:15;19.50;53.70
61117;DHT22;47002;50.856;6.580;2022-08-11T07:08:24;19.70;53.00
61117;DHT22;47002;50.856;6.580;2022-08-11T07:11:03;20.00;52.00
61117;DHT22;47002;50.856;6.580;2022-08-11T07:13:37;20.20;50.90
61117;DHT22;47002;50.856;6.580;2022-08-11T07:16:03;20.40;50.00
61117;DHT22;47002;50.856;6.580;2022-08-11T07:18:32;20.60;49.40
61117;DHT22;47002;50.856;6.580;2022-08-11T07:21:12;20.80;48.60
61117;DHT22;47002;50.856;6.580;2022-08-11T07:23:40;21.00;48.40
61117;DHT22;47002;50.856;6.580;2022-08-11T07:26:06;21.10;47.70
61117;DHT22;47002;50.856;6.580;2022-08-11T07:28:33;21.20;47.50
61117;DHT22;47002;50.856;6.580;2022-08-11T07:31:05;21.40;46.60
61117;DHT22;47002;50.856;6.580;2022-08-11T07:33:39;21.50;45.90
61117;DHT22;47002;50.856;6.580;2022-08-11T07:36:08;21.60;45.20
61117;DHT22;47002;50.856;6.580;2022-08-11T07:38:40;21.80;45.20
61117;DHT22;47002;50.856;6.580;2022-08-11T07:41:07;21.90;45.00
61117;DHT22;47002;50.856;6.580;2022-08-11T07:43:34;22.10;44.40
61117;DHT22;47002;50.856;6.580;2022-08-11T07:46:02;22.20;43.40
61117;DHT22;47002;50.856;6.580;2022-08-11T07:48:29;22.30;43.80
61117;DHT22;47002;50.856;6.580;2022-08-11T07:50:56;22.40;43.50
61117;DHT22;47002;50.856;6.580;2022-08-11T07:53:22;22.60;43.30
61117;DHT22;47002;50.856;6.580;2022-08-11T07:55:52;22.70;42.70
61117;DHT22;47002;50.856;6.580;2022-08-11T07:58:20;22.80;42.20
61117;DHT22;47002;50.856;6.580;2022-08-11T08:00:50;22.90;40.80
61117;DHT22;47002;50.856;6.580;2022-08-11T08:03:16;23.10;40.50
61117;DHT22;47002;50.856;6.580;2022-08-11T08:05:43;23.20;40.30
61117;DHT22;47002;50.856;6.580;2022-08-11T08:08:10;23.30;39.80
61117;DHT22;47002;50.856;6.580;2022-08-11T08:10:37;23.40;39.90
61117;DHT22;47002;50.856;6.580;2022-08-11T08:13:05;23.60;39.40
61117;DHT22;47002;50.856;6.580;2022-08-11T08:15:31;23.70;39.00
61117;DHT22;47002;50.856;6.580;2022-08-11T08:17:59;23.90;38.60
61117;DHT22;47002;50.856;6.580;2022-08-11T08:20:27;24.00;38.50
61117;DHT22;47002;50.856;6.580;2022-08-11T08:22:55;24.10;38.90
61117;DHT22;47002;50.856;6.580;2022-08-11T08:25:23;24.20;38.00
61117;DHT22;47002;50.856;6.580;2022-08-11T08:27:50;24.40;37.70
61117;DHT22;47002;50.856;6.580;2022-08-11T08:30:17;24.50;37.70
61117;DHT22;47002;50.856;6.580;2022-08-11T08:32:43;24.60;37.50
61117;DHT22;47002;50.856;6.580;2022-08-11T08:35:10;24.70;37.30
61117;DHT22;47002;50.856;6.580;2022-08-11T08:37:36;24.90;37.20
61117;DHT22;47002;50.856;6.580;2022-08-11T08:40:03;25.00;36.00
61117;DHT22;47002;50.856;6.580;2022-08-11T08:42:34;25.10;35.80
61117;DHT22;47002;50.856;6.580;2022-08-11T08:45:04;25.20;35.50
61117;DHT22;47002;50.856;6.580;2022-08-11T08:47:35;25.40;35.10
61117;DHT22;47002;50.856;6.580;2022-08-11T08:50:03;25.50;34.50
61117;DHT22;47002;50.856;6.580;2022-08-11T08:52:33;25.60;34.50
61117;DHT22;47002;50.856;6.580;2022-08-11T08:55:03;25.60;34.00
61117;DHT22;47002;50.856;6.580;2022-08-11T08:57:32;25.70;34.50
61117;DHT22;47002;50.856;6.580;2022-08-11T08:59:59;25.80;34.20
61117;DHT22;47002;50.856;6.580;2022-08-11T09:02:26;26.00;34.10
61117;DHT22;47002;50.856;6.580;2022-08-11T09:04:53;26.10;33.80
61117;DHT22;47002;50.856;6.580;2022-08-11T09:07:21;26.20;33.50
61117;DHT22;47002;50.856;6.580;2022-08-11T09:09:49;26.40;33.40
61117;DHT22;47002;50.856;6.580;2022-08-11T09:12:17;26.60;33.00
61117;DHT22;47002;50.856;6.580;2022-08-11T09:14:46;26.70;32.60
61117;DHT22;47002;50.856;6.580;2022-08-11T09:17:12;26.80;32.00
61117;DHT22;47002;50.856;6.580;2022-08-11T09:19:38;26.90;31.70
61117;DHT22;47002;50.856;6.580;2022-08-11T09:22:07;27.00;31.60
61117;DHT22;47002;50.856;6.580;2022-08-11T09:24:33;27.10;31.00
61117;DHT22;47002;50.856;6.580;2022-08-11T09:27:04;27.10;30.70
61117;DHT22;47002;50.856;6.580;2022-08-11T09:29:30;27.10;31.30
61117;DHT22;47002;50.856;6.580;2022-08-11T09:31:57;27.30;30.60
61117;DHT22;47002;50.856;6.580;2022-08-11T09:34:24;27.40;30.70
61117;DHT22;47002;50.856;6.580;2022-08-11T09:36:51;27.60;30.30
61117;DHT22;47002;50.856;6.580;2022-08-11T09:39:18;27.70;29.60
61117;DHT22;47002;50.856;6.580;2022-08-11T09:41:44;27.80;29.80
61117;DHT22;47002;50.856;6.580;2022-08-11T09:44:11;27.90;29.40
61117;DHT22;47002;50.856;6.580;2022-08-11T09:46:37;28.10;28.80
61117;DHT22;47002;50.856;6.580;2022-08-11T09:49:03;28.10;28.80
61117;DHT22;47002;50.856;6.580;2022-08-11T09:51:31;28.20;27.70
61117;DHT22;47002;50.856;6.580;2022-08-11T09:53:58;28.20;27.00
61117;DHT22;47002;50.856;6.580;2022-08-11T09:56:27;28.30;27.30
61117;DHT22;47002;50.856;6.580;2022-08-11T09:58:53;28.40;28.00
61117;DHT22;47002;50.856;6.580;2022-08-11T10:01:21;28.50;27.10
61117;DHT22;47002;50.856;6.580;2022-08-11T10:03:49;28.50;26.60
61117;DHT22;47002;50.856;6.580;2022-08-11T10:06:16;28.60;27.60
61117;DHT22;47002;50.856;6.580;2022-08-11T10:08:42;28.70;26.90
61117;DHT22;47002;50.856;6.580;2022-08-11T10:11:12;28.90;26.20
61117;DHT22;47002;50.856;6.580;2022-08-11T10:13:42;29.00;25.10
61117;DHT22;47002;50.856;6.580;2022-08-11T10:16:09;29.00;25.20
61117;DHT22;47002;50.856;6.580;2022-08-11T10:18:40;29.10;26.10
61117;DHT22;47002;50.856;6.580;2022-08-11T10:21:10;29.30;26.00
61117;DHT22;47002;50.856;6.580;2022-08-11T10:23:37;29.30;25.50
61117;DHT22;47002;50.856;6.580;2022-08-11T10:26:03;29.30;25.50
61117;DHT22;47002;50.856;6.580;2022-08-11T10:28:29;29.40;25.60
61117;DHT22;47002;50.856;6.580;2022-08-11T10:30:58;29.50;25.40
61117;DHT22;47002;50.856;6.580;2022-08-11T10:33:24;29.50;25.10
61117;DHT22;47002;50.856;6.580;2022-08-11T10:35:50;29.60;24.60
61117;DHT22;47002;50.856;6.580;2022-08-11T10:38:17;29.50;25.10
61117;DHT22;47002;50.856;6.580;2022-08-11T10:40:45;29.50;24.50
61117;DHT22;47002;50.856;6.580;2022-08-11T10:43:12;29.50;25.00
61117;DHT22;47002;50.856;6.580;2022-08-11T10:45:41;29.40;25.10
61117;DHT22;47002;50.856;6.580;2022-08-11T10:48:08;29.50;25.50
61117;DHT22;47002;50.856;6.580;2022-08-11T10:50:35;29.60;25.50
61117;DHT22;47002;50.856;6.580;2022-08-11T10:53:01;29.70;25.40
61117;DHT22;47002;50.856;6.580;2022-08-11T10:55:28;29.80;25.40
61117;DHT22;47002;50.856;6.580;2022-08-11T10:57:54;29.80;24.90
61117;DHT22;47002;50.856;6.580;2022-08-11T11:00:20;29.80;25.50
61117;DHT22;47002;50.856;6.580;2022-08-11T11:02:46;29.90;25.20
61117;DHT22;47002;50.856;6.580;2022-08-11T11:05:18;30.10;25.00
61117;DHT22;47002;50.856;6.580;2022-08-11T11:07:51;30.10;23.70
61117;DHT22;47002;50.856;6.580;2022-08-11T11:10:19;30.10;23.60
61117;DHT22;47002;50.856;6.580;2022-08-11T11:12:46;30.10;24.10
61117;DHT22;47002;50.856;6.580;2022-08-11T11:15:17;30.10;23.80
61117;DHT22;47002;50.856;6.580;2022-08-11T11:17:46;30.20;24.10
61117;DHT22;47002;50.856;6.580;2022-08-11T11:20:20;30.20;23.70
61117;DHT22;47002;50.856;6.580;2022-08-11T11:22:52;30.10;24.10
61117;DHT22;47002;50.856;6.580;2022-08-11T11:25:22;30.20;24.20
61117;DHT22;47002;50.856;6.580;2022-08-11T11:28:02;30.30;24.00
61117;DHT22;47002;50.856;6.580;2022-08-11T11:30:40;30.40;24.40
61117;DHT22;47002;50.856;6.580;2022-08-11T11:33:11;30.40;24.20
61117;DHT22;47002;50.856;6.580;2022-08-11T11:35:49;30.50;24.00
61117;DHT22;47002;50.856;6.580;2022-08-11T11:38:18;30.50;24.30
61117;DHT22;47002;50.856;6.580;2022-08-11T11:40:44;30.50;24.10
61117;DHT22;47002;50.856;6.580;2022-08-11T11:43:11;30.60;23.70
61117;DHT22;47002;50.856;6.580;2022-08-11T11:45:39;30.70;23.30
61117;DHT22;47002;50.856;6.580;2022-08-11T11:48:05;30.70;23.20
61117;DHT22;47002;50.856;6.580;2022-08-11T11:50:33;30.60;23.20
61117;DHT22;47002;50.856;6.580;2022-08-11T11:53:03;30.50;23.40
61117;DHT22;47002;50.856;6.580;2022-08-11T11:55:30;30.50;23.70
61117;DHT22;47002;50.856;6.580;2022-08-11T11:57:56;30.50;23.80
61117;DHT22;47002;50.856;6.580;2022-08-11T12:00:23;30.60;23.40
61117;DHT22;47002;50.856;6.580;2022-08-11T12:02:49;30.60;23.80
61117;DHT22;47002;50.856;6.580;2022-08-11T12:05:16;30.80;24.10
61117;DHT22;47002;50.856;6.580;2022-08-11T12:07:42;31.00;23.40
61117;DHT22;47002;50.856;6.580;2022-08-11T12:10:10;31.10;23.00
61117;DHT22;47002;50.856;6.580;2022-08-11T12:12:36;31.20;23.80
61117;DHT22;47002;50.856;6.580;2022-08-11T12:15:02;31.40;23.30
61117;DHT22;47002;50.856;6.580;2022-08-11T12:17:29;31.60;22.70
61117;DHT22;47002;50.856;6.580;2022-08-11T12:19:55;31.80;22.40
61117;DHT22;47002;50.856;6.580;2022-08-11T12:22:21;31.80;22.30
61117;DHT22;47002;50.856;6.580;2022-08-11T12:24:47;32.00;22.30
61117;DHT22;47002;50.856;6.580;2022-08-11T12:27:15;32.10;22.00
61117;DHT22;47002;50.856;6.580;2022-08-11T12:29:42;32.40;21.70
61117;DHT22;47002;50.856;6.580;2022-08-11T12:32:09;32.60;21.50
61117;DHT22;47002;50.856;6.580;2022-08-11T12:34:35;32.70;21.10
61117;DHT22;47002;50.856;6.580;2022-08-11T12:37:03;32.80;21.60
61117;DHT22;47002;50.856;6.580;2022-08-11T12:39:34;33.00;21.20
61117;DHT22;47002;50.856;6.580;2022-08-11T12:42:01;32.90;20.60
61117;DHT22;47002;50.856;6.580;2022-08-11T12:44:29;32.60;21.50
61117;DHT22;47002;50.856;6.580;2022-08-11T12:46:58;32.60;21.10
61117;DHT22;47002;50.856;6.580;2022-08-11T12:49:27;32.70;21.00
61117;DHT22;47002;50.856;6.580;2022-08-11T12:51:57;32.90;21.20
61117;DHT22;47002;50.856;6.580;2022-08-11T12:54:30;33.00;21.60
61117;DHT22;47002;50.856;6.580;2022-08-11T12:57:02;33.30;20.70
61117;DHT22;47002;50.856;6.580;2022-08-11T12:59:31;33.40;20.30
61117;DHT22;47002;50.856;6.580;2022-08-11T13:01:58;33.40;19.90
61117;DHT22;47002;50.856;6.580;2022-08-11T13:04:24;33.40;20.10
61117;DHT22;47002;50.856;6.580;2022-08-11T13:06:51;33.60;20.90
61117;DHT22;47002;50.856;6.580;2022-08-11T13:09:17;33.90;20.50
61117;DHT22;47002;50.856;6.580;2022-08-11T13:11:45;34.30;20.20
61117;DHT22;47002;50.856;6.580;2022-08-11T13:14:11;34.80;20.20
61117;DHT22;47002;50.856;6.580;2022-08-11T13:16:39;35.10;19.30
61117;DHT22;47002;50.856;6.580;2022-08-11T13:19:05;35.70;18.80
61117;DHT22;47002;50.856;6.580;2022-08-11T13:21:31;36.60;18.20
61117;DHT22;47002;50.856;6.580;2022-08-11T13:23:57;37.20;17.00
61117;DHT22;47002;50.856;6.580;2022-08-11T13:26:23;37.50;17.20
61117;DHT22;47002;50.856;6.580;2022-08-11T13:28:50;37.90;17.20
61117;DHT22;47002;50.856;6.580;2022-08-11T13:31:16;38.50;16.10
61117;DHT22;47002;50.856;6.580;2022-08-11T13:33:47;38.80;15.40
61117;DHT22;47002;50.856;6.580;2022-08-11T13:36:13;39.30;15.30
61117;DHT22;47002;50.856;6.580;2022-08-11T13:38:43;39.80;14.80
61117;DHT22;47002;50.856;6.580;2022-08-11T13:41:09;40.10;14.40
61117;DHT22;47002;50.856;6.580;2022-08-11T13:43:35;40.10;14.20
61117;DHT22;47002;50.856;6.580;2022-08-11T13:46:02;39.90;14.40
61117;DHT22;47002;50.856;6.580;2022-08-11T13:48:28;40.10;13.90
61117;DHT22;47002;50.856;6.580;2022-08-11T13:50:56;40.30;14.20
61117;DHT22;47002;50.856;6.580;2022-08-11T13:53:24;40.70;13.70
61117;DHT22;47002;50.856;6.580;2022-08-11T13:55:50;41.10;14.10
61117;DHT22;47002;50.856;6.580;2022-08-11T13:58:17;41.50;13.80
61117;DHT22;47002;50.856;6.580;2022-08-11T14:00:44;42.00;14.10
61117;DHT22;47002;50.856;6.580;2022-08-11T14:03:13;42.50;13.30
61117;DHT22;47002;50.856;6.580;2022-08-11T14:05:41;42.30;13.30
61117;DHT22;47002;50.856;6.580;2022-08-11T14:08:15;42.20;13.30
61117;DHT22;47002;50.856;6.580;2022-08-11T14:10:41;42.10;13.40
61117;DHT22;47002;50.856;6.580;2022-08-11T14:13:10;42.10;13.10
61117;DHT22;47002;50.856;6.580;2022-08-11T14:15:40;41.90;13.10
61117;DHT22;47002;50.856;6.580;2022-08-11T14:18:08;41.70;13.70
61117;DHT22;47002;50.856;6.580;2022-08-11T14:20:36;42.10;13.10
61117;DHT22;47002;50.856;6.580;2022-08-11T14:23:04;42.10;13.20
61117;DHT22;47002;50.856;6.580;2022-08-11T14:25:32;42.60;12.90
61117;DHT22;47002;50.856;6.580;2022-08-11T14:27:58;42.90;13.00
61117;DHT22;47002;50.856;6.580;2022-08-11T14:30:26;43.40;12.40
61117;DHT22;47002;50.856;6.580;2022-08-11T14:32:52;43.60;12.20
61117;DHT22;47002;50.856;6.580;2022-08-11T14:35:18;43.50;12.10
61117;DHT22;47002;50.856;6.580;2022-08-11T14:37:44;43.40;12.00
61117;DHT22;47002;50.856;6.580;2022-08-11T14:40:11;43.10;12.10
61117;DHT22;47002;50.856;6.580;2022-08-11T14:42:38;42.90;12.20
61117;DHT22;47002;50.856;6.580;2022-08-11T14:45:06;42.90;12.50
61117;DHT22;47002;50.856;6.580;2022-08-11T14:47:33;43.10;12.40
61117;DHT22;47002;50.856;6.580;2022-08-11T14:50:00;43.20;12.20
61117;DHT22;47002;50.856;6.580;2022-08-11T14:52:27;43.10;12.10
61117;DHT22;47002;50.856;6.580;2022-08-11T14:54:54;43.00;12.20
61117;DHT22;47002;50.856;6.580;2022-08-11T14:57:21;43.10;12.10
61117;DHT22;47002;50.856;6.580;2022-08-11T14:59:49;43.10;12.00
61117;DHT22;47002;50.856;6.580;2022-08-11T15:02:17;43.20;12.30
61117;DHT22;47002;50.856;6.580;2022-08-11T15:04:43;43.80;12.10
61117;DHT22;47002;50.856;6.580;2022-08-11T15:07:10;44.20;11.80
61117;DHT22;47002;50.856;6.580;2022-08-11T15:09:36;44.70;11.40
61117;DHT22;47002;50.856;6.580;2022-08-11T15:12:02;45.10;11.20
61117;DHT22;47002;50.856;6.580;2022-08-11T15:14:28;45.00;10.90
61117;DHT22;47002;50.856;6.580;2022-08-11T15:16:55;44.50;11.30
61117;DHT22;47002;50.856;6.580;2022-08-11T15:19:23;44.00;11.70
61117;DHT22;47002;50.856;6.580;2022-08-11T15:21:49;43.90;11.90
61117;DHT22;47002;50.856;6.580;2022-08-11T15:24:15;44.00;11.80
61117;DHT22;47002;50.856;6.580;2022-08-11T15:26:41;44.30;11.70
61117;DHT22;47002;50.856;6.580;2022-08-11T15:29:08;44.70;11.50
61117;DHT22;47002;50.856;6.580;2022-08-11T15:31:36;44.70;11.80
61117;DHT22;47002;50.856;6.580;2022-08-11T15:34:05;45.10;11.70
61117;DHT22;47002;50.856;6.580;2022-08-11T15:36:33;45.50;11.20
61117;DHT22;47002;50.856;6.580;2022-08-11T15:39:02;45.30;11.50
61117;DHT22;47002;50.856;6.580;2022-08-11T15:41:38;44.80;11.40
61117;DHT22;47002;50.856;6.580;2022-08-11T15:44:08;44.60;11.60
61117;DHT22;47002;50.856;6.580;2022-08-11T15:46:43;44.80;11.60
61117;DHT22;47002;50.856;6.580;2022-08-11T15:49:13;45.10;11.90
61117;DHT22;47002;50.856;6.580;2022-08-11T15:51:42;45.50;11.70
61117;DHT22;47002;50.856;6.580;2022-08-11T15:54:09;45.60;11.60
61117;DHT22;47002;50.856;6.580;2022-08-11T15:56:40;45.60;11.50
61117;DHT22;47002;50.856;6.580;2022-08-11T15:59:07;45.40;11.40
61117;DHT22;47002;50.856;6.580;2022-08-11T16:01:35;45.20;11.60
61117;DHT22;47002;50.856;6.580;2022-08-11T16:04:06;45.10;11.40
61117;DHT22;47002;50.856;6.580;2022-08-11T16:06:37;45.10;11.40
61117;DHT22;47002;50.856;6.580;2022-08-11T16:09:04;45.10;11.60
61117;DHT22;47002;50.856;6.580;2022-08-11T16:11:33;45.30;11.50
61117;DHT22;47002;50.856;6.580;2022-08-11T16:14:01;45.40;11.30
61117;DHT22;47002;50.856;6.580;2022-08-11T16:16:28;45.30;11.20
61117;DHT22;47002;50.856;6.580;2022-08-11T16:18:55;45.10;11.30
61117;DHT22;47002;50.856;6.580;2022-08-11T16:21:25;45.00;11.60
61117;DHT22;47002;50.856;6.580;2022-08-11T16:23:55;45.30;11.60
61117;DHT22;47002;50.856;6.580;2022-08-11T16:26:22;45.60;11.60
61117;DHT22;47002;50.856;6.580;2022-08-11T16:28:49;45.80;11.20
61117;DHT22;47002;50.856;6.580;2022-08-11T16:31:17;45.60;11.30
61117;DHT22;47002;50.856;6.580;2022-08-11T16:33:44;45.80;11.40
61117;DHT22;47002;50.856;6.580;2022-08-11T16:36:11;45.80;11.10
61117;DHT22;47002;50.856;6.580;2022-08-11T16:38:39;45.70;11.40
61117;DHT22;47002;50.856;6.580;2022-08-11T16:41:09;45.70;11.20
61117;DHT22;47002;50.856;6.580;2022-08-11T16:43:39;45.60;10.90